sensor_id;sensor_type;location;lat;lon;timestamp;temperature;humidity
8002;DHT22;4046;48.774;8.732;2023-07-30T00:01:56;23.00;99.90
8002;DHT22;4046;48.774;8.732;2023-07-30T00:04:22;23.00;99.90
8002;DHT22;4046;48.774;8.732;2023-07-30T00:06:48;23.00;99.90
8002;DHT22;4046;48.774;8.732;2023-07-30T00:09:13;23.00;99.90
8002;DHT22;4046;48.774;8.732;2023-07-30T00:11:39;23.00;99.90
8002;DHT22;4046;48.774;8.732;2023-07-30T00:14:05;23.00;99.90
8002;DHT22;4046;48.774;8.732;2023-07-30T00:16:30;23.00;99.90
8002;DHT22;4046;48.774;8.732;2023-07-30T00:18:56;23.00;99.90
8002;DHT22;4046;48.774;8.732;2023-07-30T00:21:22;23.00;99.90
8002;DHT22;4046;48.774;8.732;2023-07-30T00:23:48;23.00;99.90
8002;DHT22;4046;48.774;8.732;2023-07-30T00:26:14;23.00;99.90
8002;DHT22;4046;48.774;8.732;2023-07-30T00:28:39;23.00;99.90
8002;DHT22;4046;48.774;8.732;2023-07-30T00:31:05;23.00;99.90
8002;DHT22;4046;48.774;8.732;2023-07-30T00:33:31;23.00;99.90
8002;DHT22;4046;48.774;8.732;2023-07-30T00:35:56;23.00;99.90
8002;DHT22;4046;48.774;8.732;2023-07-30T00:38:22;23.00;99.90
8002;DHT22;4046;48.774;8.732;2023-07-30T00:40:49;23.00;99.90
8002;DHT22;4046;48.774;8.732;2023-07-30T00:43:14;23.00;99.90
8002;DHT22;4046;48.774;8.732;2023-07-30T00:45:42;23.00;99.90
8002;DHT22;4046;48.774;8.732;2023-07-30T00:48:10;23.00;99.90
8002;DHT22;4046;48.774;8.732;2023-07-30T00:50:37;23.00;99.90
8002;DHT22;4046;48.774;8.732;2023-07-30T00:53:04;23.00;99.90
8002;DHT22;4046;48.774;8.732;2023-07-30T00:55:29;23.00;99.90
8002;DHT22;4046;48.774;8.732;2023-07-30T00:57:57;23.00;99.90
8002;DHT22;4046;48.774;8.732;2023-07-30T01:00:23;23.00;99.90
8002;DHT22;4046;48.774;8.732;2023-07-30T01:02:51;23.00;99.90
8002;DHT22;4046;48.774;8.732;2023-07-30T01:05:17;23.00;99.90
8002;DHT22;4046;48.774;8.732;2023-07-30T01:07:43;23.00;99.90
8002;DHT22;4046;48.774;8.732;2023-07-30T01:10:09;23.00;99.90
8002;DHT22;4046;48.774;8.732;2023-07-30T01:12:35;23.00;99.90
8002;DHT22;4046;48.774;8.732;2023-07-30T01:15:03;22.90;99.90
8002;DHT22;4046;48.774;8.732;2023-07-30T01:17:29;22.90;99.90
8002;DHT22;4046;48.774;8.732;2023-07-30T01:19:55;22.90;99.90
8002;DHT22;4046;48.774;8.732;2023-07-30T01:22:22;22.90;99.90
8002;DHT22;4046;48.774;8.732;2023-07-30T01:24:48;22.90;99.90
8002;DHT22;4046;48.774;8.732;2023-07-30T01:27:26;22.90;99.90
8002;DHT22;4046;48.774;8.732;2023-07-30T01:30:01;22.90;99.90
8002;DHT22;4046;48.774;8.732;2023-07-30T01:32:29;22.90;99.90
8002;DHT22;4046;48.774;8.732;2023-07-30T01:34:57;22.90;99.90
8002;DHT22;4046;48.774;8.732;2023-07-30T01:37:23;22.90;99.90
8002;DHT22;4046;48.774;8.732;2023-07-30T01:39:50;22.90;99.90
8002;DHT22;4046;48.774;8.732;2023-07-30T01:42:16;22.90;99.90
8002;DHT22;4046;48.774;8.732;2023-07-30T01:44:42;22.90;99.90
8002;DHT22;4046;48.774;8.732;2023-07-30T01:47:08;22.90;99.90
8002;DHT22;4046;48.774;8.732;2023-07-30T01:49:34;22.90;99.90
8002;DHT22;4046;48.774;8.732;2023-07-30T01:51:59;22.90;99.90
8002;DHT22;4046;48.774;8.732;2023-07-30T01:54:25;22.90;99.90
8002;DHT22;4046;48.774;8.732;2023-07-30T01:56:52;22.90;99.90
8002;DHT22;4046;48.774;8.732;2023-07-30T01:59:18;22.90;99.90
8002;DHT22;4046;48.774;8.732;2023-07-30T02:01:44;22.90;99.90
8002;DHT22;4046;48.774;8.732;2023-07-30T02:04:10;22.90;99.90
8002;DHT22;4046;48.774;8.732;2023-07-30T02:06:35;22.90;99.90
8002;DHT22;4046;48.774;8.732;2023-07-30T02:09:02;22.90;99.90
8002;DHT22;4046;48.774;8.732;2023-07-30T02:11:28;22.90;99.90
8002;DHT22;4046;48.774;8.732;2023-07-30T02:13:54;22.90;99.90
8002;DHT22;4046;48.774;8.732;2023-07-30T02:16:20;22.90;99.90
8002;DHT22;4046;48.774;8.732;2023-07-30T02:18:46;22.90;99.90
8002;DHT22;4046;48.774;8.732;2023-07-30T02:21:12;22.90;99.90
8002;DHT22;4046;48.774;8.732;2023-07-30T02:23:38;22.90;99.90
8002;DHT22;4046;48.774;8.732;2023-07-30T02:26:04;22.90;99.90
8002;DHT22;4046;48.774;8.732;2023-07-30T02:28:30;22.90;99.90
8002;DHT22;4046;48.774;8.732;2023-07-30T02:30:55;22.90;99.90
8002;DHT22;4046;48.774;8.732;2023-07-30T02:33:21;22.90;99.90
8002;DHT22;4046;48.774;8.732;2023-07-30T02:35:47;22.90;99.90
8002;DHT22;4046;48.774;8.732;2023-07-30T02:38:13;22.90;99.90
8002;DHT22;4046;48.774;8.732;2023-07-30T02:40:38;22.90;99.90
8002;DHT22;4046;48.774;8.732;2023-07-30T02:43:04;22.90;99.90
8002;DHT22;4046;48.774;8.732;2023-07-30T02:45:30;22.90;99.90
8002;DHT22;4046;48.774;8.732;2023-07-30T02:47:56;22.90;99.90
8002;DHT22;4046;48.774;8.732;2023-07-30T02:50:22;22.90;99.90
8002;DHT22;4046;48.774;8.732;2023-07-30T02:52:47;22.90;99.90
8002;DHT22;4046;48.774;8.732;2023-07-30T02:55:13;22.90;99.90
8002;DHT22;4046;48.774;8.732;2023-07-30T02:57:39;22.90;99.90
8002;DHT22;4046;48.774;8.732;2023-07-30T03:00:05;22.90;99.90
8002;DHT22;4046;48.774;8.732;2023-07-30T03:02:31;22.90;99.90
8002;DHT22;4046;48.774;8.732;2023-07-30T03:04:57;22.90;99.90
8002;DHT22;4046;48.774;8.732;2023-07-30T03:07:23;22.90;99.90
8002;DHT22;4046;48.774;8.732;2023-07-30T03:09:49;22.90;99.90
8002;DHT22;4046;48.774;8.732;2023-07-30T03:12:14;22.90;99.90
8002;DHT22;4046;48.774;8.732;2023-07-30T03:14:40;22.90;99.90
8002;DHT22;4046;48.774;8.732;2023-07-30T03:17:06;22.90;99.90
8002;DHT22;4046;48.774;8.732;2023-07-30T03:19:31;22.90;99.90
8002;DHT22;4046;48.774;8.732;2023-07-30T03:21:57;22.90;99.90
8002;DHT22;4046;48.774;8.732;2023-07-30T03:24:23;22.90;99.90
8002;DHT22;4046;48.774;8.732;2023-07-30T03:26:49;22.90;99.90
8002;DHT22;4046;48.774;8.732;2023-07-30T03:29:15;22.80;99.90
8002;DHT22;4046;48.774;8.732;2023-07-30T03:31:41;22.80;99.90
8002;DHT22;4046;48.774;8.732;2023-07-30T03:34:07;22.80;99.90
8002;DHT22;4046;48.774;8.732;2023-07-30T03:36:33;22.80;99.90
8002;DHT22;4046;48.774;8.732;2023-07-30T03:38:58;22.80;99.90
8002;DHT22;4046;48.774;8.732;2023-07-30T03:41:24;22.80;99.90
8002;DHT22;4046;48.774;8.732;2023-07-30T03:43:50;22.80;99.90
8002;DHT22;4046;48.774;8.732;2023-07-30T03:46:16;22.80;99.90
8002;DHT22;4046;48.774;8.732;2023-07-30T03:48:42;22.80;99.90
8002;DHT22;4046;48.774;8.732;2023-07-30T03:51:08;22.80;99.90
8002;DHT22;4046;48.774;8.732;2023-07-30T03:53:34;22.80;99.90
8002;DHT22;4046;48.774;8.732;2023-07-30T03:56:02;22.80;99.90
8002;DHT22;4046;48.774;8.732;2023-07-30T03:58:27;22.80;99.90
8002;DHT22;4046;48.774;8.732;2023-07-30T04:00:53;22.80;99.90
8002;DHT22;4046;48.774;8.732;2023-07-30T04:03:19;22.80;99.90
8002;DHT22;4046;48.774;8.732;2023-07-30T04:05:44;22.80;99.90
8002;DHT22;4046;48.774;8.732;2023-07-30T04:08:10;23.00;99.90
8002;DHT22;4046;48.774;8.732;2023-07-30T04:10:36;22.80;99.90
8002;DHT22;4046;48.774;8.732;2023-07-30T04:13:02;22.80;99.90
8002;DHT22;4046;48.774;8.732;2023-07-30T04:15:27;22.80;99.90
8002;DHT22;4046;48.774;8.732;2023-07-30T04:17:53;22.80;99.90
8002;DHT22;4046;48.774;8.732;2023-07-30T04:20:19;22.80;99.90
8002;DHT22;4046;48.774;8.732;2023-07-30T04:22:45;22.80;99.90
8002;DHT22;4046;48.774;8.732;2023-07-30T04:25:11;22.80;99.90
8002;DHT22;4046;48.774;8.732;2023-07-30T04:27:37;22.90;99.90
8002;DHT22;4046;48.774;8.732;2023-07-30T04:30:04;22.80;99.90
8002;DHT22;4046;48.774;8.732;2023-07-30T04:32:31;22.80;99.90
8002;DHT22;4046;48.774;8.732;2023-07-30T04:34:56;22.80;99.90
8002;DHT22;4046;48.774;8.732;2023-07-30T04:37:22;22.80;99.90
8002;DHT22;4046;48.774;8.732;2023-07-30T04:39:49;22.80;99.90
8002;DHT22;4046;48.774;8.732;2023-07-30T04:42:14;22.80;99.90
8002;DHT22;4046;48.774;8.732;2023-07-30T04:44:41;22.80;99.90
8002;DHT22;4046;48.774;8.732;2023-07-30T04:47:07;22.80;99.90
8002;DHT22;4046;48.774;8.732;2023-07-30T04:49:33;22.80;99.90
8002;DHT22;4046;48.774;8.732;2023-07-30T04:51:59;22.80;99.90
8002;DHT22;4046;48.774;8.732;2023-07-30T04:54:25;22.80;99.90
8002;DHT22;4046;48.774;8.732;2023-07-30T04:56:50;22.70;99.90
8002;DHT22;4046;48.774;8.732;2023-07-30T04:59:16;22.70;99.90
8002;DHT22;4046;48.774;8.732;2023-07-30T05:01:42;22.70;99.90
8002;DHT22;4046;48.774;8.732;2023-07-30T05:04:07;22.70;99.90
8002;DHT22;4046;48.774;8.732;2023-07-30T05:06:33;22.90;99.90
8002;DHT22;4046;48.774;8.732;2023-07-30T05:08:59;22.70;99.90
8002;DHT22;4046;48.774;8.732;2023-07-30T05:11:25;22.70;99.90
8002;DHT22;4046;48.774;8.732;2023-07-30T05:13:50;22.70;99.90
8002;DHT22;4046;48.774;8.732;2023-07-30T05:16:16;22.80;99.90
8002;DHT22;4046;48.774;8.732;2023-07-30T05:18:42;22.70;99.90
8002;DHT22;4046;48.774;8.732;2023-07-30T05:21:07;22.70;99.90
8002;DHT22;4046;48.774;8.732;2023-07-30T05:23:33;22.70;99.90
8002;DHT22;4046;48.774;8.732;2023-07-30T05:25:59;22.70;99.90
8002;DHT22;4046;48.774;8.732;2023-07-30T05:28:25;22.70;99.90
8002;DHT22;4046;48.774;8.732;2023-07-30T05:30:51;22.70;99.90
8002;DHT22;4046;48.774;8.732;2023-07-30T05:33:17;22.70;99.90
8002;DHT22;4046;48.774;8.732;2023-07-30T05:35:42;22.80;99.90
8002;DHT22;4046;48.774;8.732;2023-07-30T05:38:08;22.70;99.90
8002;DHT22;4046;48.774;8.732;2023-07-30T05:40:35;22.70;99.90
8002;DHT22;4046;48.774;8.732;2023-07-30T05:43:01;22.70;99.90
8002;DHT22;4046;48.774;8.732;2023-07-30T05:45:27;22.70;99.90
8002;DHT22;4046;48.774;8.732;2023-07-30T05:47:53;22.70;99.90
8002;DHT22;4046;48.774;8.732;2023-07-30T05:50:18;22.70;99.90
8002;DHT22;4046;48.774;8.732;2023-07-30T05:52:44;22.80;99.90
8002;DHT22;4046;48.774;8.732;2023-07-30T05:55:10;22.70;99.90
8002;DHT22;4046;48.774;8.732;2023-07-30T05:57:36;22.80;99.90
8002;DHT22;4046;48.774;8.732;2023-07-30T06:00:02;22.80;99.90
8002;DHT22;4046;48.774;8.732;2023-07-30T06:02:28;22.70;99.90
8002;DHT22;4046;48.774;8.732;2023-07-30T06:04:54;22.70;99.90
8002;DHT22;4046;48.774;8.732;2023-07-30T06:07:19;22.80;99.90
8002;DHT22;4046;48.774;8.732;2023-07-30T06:09:45;22.80;99.90
8002;DHT22;4046;48.774;8.732;2023-07-30T06:12:11;22.80;99.90
8002;DHT22;4046;48.774;8.732;2023-07-30T06:14:37;22.80;99.90
8002;DHT22;4046;48.774;8.732;2023-07-30T06:17:03;22.80;99.90
8002;DHT22;4046;48.774;8.732;2023-07-30T06:19:29;22.80;99.90
8002;DHT22;4046;48.774;8.732;2023-07-30T06:21:54;22.80;99.90
8002;DHT22;4046;48.774;8.732;2023-07-30T06:24:20;22.90;99.90
8002;DHT22;4046;48.774;8.732;2023-07-30T06:26:46;22.90;99.90
8002;DHT22;4046;48.774;8.732;2023-07-30T06:29:12;22.90;99.90
8002;DHT22;4046;48.774;8.732;2023-07-30T06:31:37;22.90;99.90
8002;DHT22;4046;48.774;8.732;2023-07-30T06:34:03;22.90;99.90
8002;DHT22;4046;48.774;8.732;2023-07-30T06:36:29;22.90;99.90
8002;DHT22;4046;48.774;8.732;2023-07-30T06:38:54;22.90;99.90
8002;DHT22;4046;48.774;8.732;2023-07-30T06:41:21;22.90;99.90
8002;DHT22;4046;48.774;8.732;2023-07-30T06:43:47;22.90;99.90
8002;DHT22;4046;48.774;8.732;2023-07-30T06:46:13;22.90;99.90
8002;DHT22;4046;48.774;8.732;2023-07-30T06:48:38;23.00;99.90
8002;DHT22;4046;48.774;8.732;2023-07-30T06:51:06;22.90;99.90
8002;DHT22;4046;48.774;8.732;2023-07-30T06:53:32;22.80;99.90
8002;DHT22;4046;48.774;8.732;2023-07-30T06:55:58;22.90;99.90
8002;DHT22;4046;48.774;8.732;2023-07-30T06:58:24;22.90;99.90
8002;DHT22;4046;48.774;8.732;2023-07-30T07:00:49;22.90;99.90
8002;DHT22;4046;48.774;8.732;2023-07-30T07:03:15;22.80;99.90
8002;DHT22;4046;48.774;8.732;2023-07-30T07:05:41;22.90;99.90
8002;DHT22;4046;48.774;8.732;2023-07-30T07:08:06;22.80;99.90
8002;DHT22;4046;48.774;8.732;2023-07-30T07:10:32;22.80;99.90
8002;DHT22;4046;48.774;8.732;2023-07-30T07:12:58;22.80;99.90
8002;DHT22;4046;48.774;8.732;2023-07-30T07:15:24;22.80;99.90
8002;DHT22;4046;48.774;8.732;2023-07-30T07:17:49;22.80;99.90
8002;DHT22;4046;48.774;8.732;2023-07-30T07:20:15;22.80;99.90
8002;DHT22;4046;48.774;8.732;2023-07-30T07:22:41;22.90;99.90
8002;DHT22;4046;48.774;8.732;2023-07-30T07:25:07;22.80;99.90
8002;DHT22;4046;48.774;8.732;2023-07-30T07:27:33;22.80;99.90
8002;DHT22;4046;48.774;8.732;2023-07-30T07:29:59;22.80;99.90
8002;DHT22;4046;48.774;8.732;2023-07-30T07:32:25;22.80;99.90
8002;DHT22;4046;48.774;8.732;2023-07-30T07:34:51;22.90;99.90
8002;DHT22;4046;48.774;8.732;2023-07-30T07:37:17;22.90;99.90
8002;DHT22;4046;48.774;8.732;2023-07-30T07:39:44;22.80;99.90
8002;DHT22;4046;48.774;8.732;2023-07-30T07:42:11;22.90;99.90
8002;DHT22;4046;48.774;8.732;2023-07-30T07:44:37;22.90;99.90
8002;DHT22;4046;48.774;8.732;2023-07-30T07:47:03;22.80;99.90
8002;DHT22;4046;48.774;8.732;2023-07-30T07:49:29;22.80;99.90
8002;DHT22;4046;48.774;8.732;2023-07-30T07:51:55;22.80;99.90
8002;DHT22;4046;48.774;8.732;2023-07-30T07:54:21;22.80;99.90
8002;DHT22;4046;48.774;8.732;2023-07-30T07:56:47;22.80;99.90
8002;DHT22;4046;48.774;8.732;2023-07-30T07:59:13;22.80;99.90
8002;DHT22;4046;48.774;8.732;2023-07-30T08:01:39;22.90;99.90
8002;DHT22;4046;48.774;8.732;2023-07-30T08:04:04;22.90;99.90
8002;DHT22;4046;48.774;8.732;2023-07-30T08:06:33;22.90;99.90
8002;DHT22;4046;48.774;8.732;2023-07-30T08:08:59;22.90;99.90
8002;DHT22;4046;48.774;8.732;2023-07-30T08:11:25;22.90;99.90
8002;DHT22;4046;48.774;8.732;2023-07-30T08:13:51;22.90;99.90
8002;DHT22;4046;48.774;8.732;2023-07-30T08:16:17;22.90;99.90
8002;DHT22;4046;48.774;8.732;2023-07-30T08:18:43;22.90;99.90
8002;DHT22;4046;48.774;8.732;2023-07-30T08:21:09;22.90;99.90
8002;DHT22;4046;48.774;8.732;2023-07-30T08:23:35;22.90;99.90
8002;DHT22;4046;48.774;8.732;2023-07-30T08:26:00;22.90;99.90
8002;DHT22;4046;48.774;8.732;2023-07-30T08:28:26;22.90;99.90
8002;DHT22;4046;48.774;8.732;2023-07-30T08:30:52;22.90;99.90
8002;DHT22;4046;48.774;8.732;2023-07-30T08:33:18;22.90;99.90
8002;DHT22;4046;48.774;8.732;2023-07-30T08:35:43;22.90;99.90
8002;DHT22;4046;48.774;8.732;2023-07-30T08:38:09;22.90;99.90
8002;DHT22;4046;48.774;8.732;2023-07-30T08:40:35;22.90;99.90
8002;DHT22;4046;48.774;8.732;2023-07-30T08:43:02;23.00;99.90
8002;DHT22;4046;48.774;8.732;2023-07-30T08:45:29;22.90;99.90
8002;DHT22;4046;48.774;8.732;2023-07-30T08:47:54;22.90;99.90
8002;DHT22;4046;48.774;8.732;2023-07-30T08:50:20;22.90;99.90
8002;DHT22;4046;48.774;8.732;2023-07-30T08:52:47;22.90;99.90
8002;DHT22;4046;48.774;8.732;2023-07-30T08:55:13;22.90;99.90
8002;DHT22;4046;48.774;8.732;2023-07-30T08:57:41;22.90;99.90
8002;DHT22;4046;48.774;8.732;2023-07-30T09:00:09;22.90;99.90
8002;DHT22;4046;48.774;8.732;2023-07-30T09:02:47;22.90;99.90
8002;DHT22;4046;48.774;8.732;2023-07-30T09:05:13;22.90;99.90
8002;DHT22;4046;48.774;8.732;2023-07-30T09:07:39;22.90;99.90
8002;DHT22;4046;48.774;8.732;2023-07-30T09:10:06;22.90;99.90
8002;DHT22;4046;48.774;8.732;2023-07-30T09:12:33;22.90;99.90
8002;DHT22;4046;48.774;8.732;2023-07-30T09:14:59;22.90;99.90
8002;DHT22;4046;48.774;8.732;2023-07-30T09:17:25;22.90;99.90
8002;DHT22;4046;48.774;8.732;2023-07-30T09:19:52;22.90;99.90
8002;DHT22;4046;48.774;8.732;2023-07-30T09:24:51;22.90;99.90
8002;DHT22;4046;48.774;8.732;2023-07-30T09:27:20;22.90;99.90
8002;DHT22;4046;48.774;8.732;2023-07-30T09:29:52;22.90;99.90
8002;DHT22;4046;48.774;8.732;2023-07-30T09:32:18;22.90;99.90
8002;DHT22;4046;48.774;8.732;2023-07-30T09:34:45;22.90;99.90
8002;DHT22;4046;48.774;8.732;2023-07-30T09:37:10;22.90;99.90
8002;DHT22;4046;48.774;8.732;2023-07-30T09:39:37;23.00;99.90
8002;DHT22;4046;48.774;8.732;2023-07-30T09:42:03;23.00;99.90
8002;DHT22;4046;48.774;8.732;2023-07-30T09:44:32;23.00;99.90
8002;DHT22;4046;48.774;8.732;2023-07-30T09:47:01;23.00;99.90
8002;DHT22;4046;48.774;8.732;2023-07-30T09:49:31;23.00;99.90
8002;DHT22;4046;48.774;8.732;2023-07-30T09:52:00;23.00;99.90
8002;DHT22;4046;48.774;8.732;2023-07-30T09:54:27;23.00;99.90
8002;DHT22;4046;48.774;8.732;2023-07-30T09:56:52;23.00;99.90
8002;DHT22;4046;48.774;8.732;2023-07-30T09:59:18;23.00;99.90
8002;DHT22;4046;48.774;8.732;2023-07-30T10:01:46;23.00;99.90
8002;DHT22;4046;48.774;8.732;2023-07-30T10:04:15;23.30;99.90
8002;DHT22;4046;48.774;8.732;2023-07-30T10:06:49;23.10;99.90
8002;DHT22;4046;48.774;8.732;2023-07-30T10:09:17;23.10;99.90
8002;DHT22;4046;48.774;8.732;2023-07-30T10:11:45;23.20;99.90
8002;DHT22;4046;48.774;8.732;2023-07-30T10:14:12;23.30;99.90
8002;DHT22;4046;48.774;8.732;2023-07-30T10:16:38;23.20;99.90
8002;DHT22;4046;48.774;8.732;2023-07-30T10:19:04;23.20;99.90
8002;DHT22;4046;48.774;8.732;2023-07-30T10:21:32;23.30;99.90
8002;DHT22;4046;48.774;8.732;2023-07-30T10:24:03;23.30;99.90
8002;DHT22;4046;48.774;8.732;2023-07-30T10:26:33;23.30;99.90
8002;DHT22;4046;48.774;8.732;2023-07-30T10:29:19;23.30;99.90
8002;DHT22;4046;48.774;8.732;2023-07-30T10:31:52;23.30;99.90
8002;DHT22;4046;48.774;8.732;2023-07-30T10:34:18;23.30;99.90
8002;DHT22;4046;48.774;8.732;2023-07-30T10:36:47;23.30;99.90
8002;DHT22;4046;48.774;8.732;2023-07-30T10:39:21;23.30;99.90
8002;DHT22;4046;48.774;8.732;2023-07-30T10:41:53;23.30;99.90
8002;DHT22;4046;48.774;8.732;2023-07-30T10:44:31;23.30;99.90
8002;DHT22;4046;48.774;8.732;2023-07-30T10:46:58;23.30;99.90
8002;DHT22;4046;48.774;8.732;2023-07-30T10:49:25;23.30;99.90
8002;DHT22;4046;48.774;8.732;2023-07-30T10:51:55;23.40;99.90
8002;DHT22;4046;48.774;8.732;2023-07-30T10:54:22;23.40;99.90
8002;DHT22;4046;48.774;8.732;2023-07-30T10:56:48;23.50;99.90
8002;DHT22;4046;48.774;8.732;2023-07-30T10:59:15;23.30;99.90
8002;DHT22;4046;48.774;8.732;2023-07-30T11:01:42;23.30;99.90
8002;DHT22;4046;48.774;8.732;2023-07-30T11:04:10;23.30;99.90
8002;DHT22;4046;48.774;8.732;2023-07-30T11:06:36;23.30;99.90
8002;DHT22;4046;48.774;8.732;2023-07-30T11:09:02;23.40;99.90
8002;DHT22;4046;48.774;8.732;2023-07-30T11:11:29;23.40;99.90
8002;DHT22;4046;48.774;8.732;2023-07-30T11:13:54;23.30;99.90
8002;DHT22;4046;48.774;8.732;2023-07-30T11:16:20;23.30;99.90
8002;DHT22;4046;48.774;8.732;2023-07-30T11:18:46;23.30;99.90
8002;DHT22;4046;48.774;8.732;2023-07-30T11:21:15;23.30;99.90
8002;DHT22;4046;48.774;8.732;2023-07-30T11:23:43;23.60;99.90
8002;DHT22;4046;48.774;8.732;2023-07-30T11:26:17;23.40;99.90
8002;DHT22;4046;48.774;8.732;2023-07-30T11:28:42;23.40;99.90
8002;DHT22;4046;48.774;8.732;2023-07-30T11:31:11;23.40;99.90
8002;DHT22;4046;48.774;8.732;2023-07-30T11:33:46;23.40;99.90
8002;DHT22;4046;48.774;8.732;2023-07-30T11:36:18;23.40;99.90
8002;DHT22;4046;48.774;8.732;2023-07-30T11:38:45;23.40;99.90
8002;DHT22;4046;48.774;8.732;2023-07-30T11:41:12;23.20;99.90
8002;DHT22;4046;48.774;8.732;2023-07-30T11:43:41;23.30;99.90
8002;DHT22;4046;48.774;8.732;2023-07-30T11:46:14;23.40;99.90
8002;DHT22;4046;48.774;8.732;2023-07-30T11:48:43;23.30;99.90
8002;DHT22;4046;48.774;8.732;2023-07-30T11:51:27;23.30;99.90
8002;DHT22;4046;48.774;8.732;2023-07-30T11:53:55;23.50;99.90
8002;DHT22;4046;48.774;8.732;2023-07-30T11:56:28;23.40;99.90
8002;DHT22;4046;48.774;8.732;2023-07-30T11:58:59;23.40;99.90
8002;DHT22;4046;48.774;8.732;2023-07-30T12:01:28;23.40;99.90
8002;DHT22;4046;48.774;8.732;2023-07-30T12:03:59;23.30;99.90
8002;DHT22;4046;48.774;8.732;2023-07-30T12:06:41;23.40;99.90
8002;DHT22;4046;48.774;8.732;2023-07-30T12:09:15;23.40;99.90
8002;DHT22;4046;48.774;8.732;2023-07-30T12:11:52;23.40;99.90
8002;DHT22;4046;48.774;8.732;2023-07-30T12:14:19;23.40;99.90
8002;DHT22;4046;48.774;8.732;2023-07-30T12:16:45;23.50;99.90
8002;DHT22;4046;48.774;8.732;2023-07-30T12:19:11;23.40;99.90
8002;DHT22;4046;48.774;8.732;2023-07-30T12:21:37;23.40;99.90
8002;DHT22;4046;48.774;8.732;2023-07-30T12:24:03;23.30;99.90
8002;DHT22;4046;48.774;8.732;2023-07-30T12:26:29;23.30;99.90
8002;DHT22;4046;48.774;8.732;2023-07-30T12:28:54;23.30;99.90
8002;DHT22;4046;48.774;8.732;2023-07-30T12:31:20;23.30;99.90
8002;DHT22;4046;48.774;8.732;2023-07-30T12:33:46;23.40;99.90
8002;DHT22;4046;48.774;8.732;2023-07-30T12:36:12;23.30;99.90
8002;DHT22;4046;48.774;8.732;2023-07-30T12:38:37;23.30;99.90
8002;DHT22;4046;48.774;8.732;2023-07-30T12:41:03;23.40;99.90
8002;DHT22;4046;48.774;8.732;2023-07-30T12:43:29;23.40;99.90
8002;DHT22;4046;48.774;8.732;2023-07-30T12:45:54;23.40;99.90
8002;DHT22;4046;48.774;8.732;2023-07-30T12:48:20;23.40;99.90
8002;DHT22;4046;48.774;8.732;2023-07-30T12:50:46;23.40;99.90
8002;DHT22;4046;48.774;8.732;2023-07-30T12:53:11;23.40;99.90
8002;DHT22;4046;48.774;8.732;2023-07-30T12:55:37;23.30;99.90
8002;DHT22;4046;48.774;8.732;2023-07-30T12:58:04;23.30;99.90
8002;DHT22;4046;48.774;8.732;2023-07-30T13:00:30;23.30;99.90
8002;DHT22;4046;48.774;8.732;2023-07-30T13:02:55;23.30;99.90
8002;DHT22;4046;48.774;8.732;2023-07-30T13:05:23;23.30;99.90
8002;DHT22;4046;48.774;8.732;2023-07-30T13:07:48;23.30;99.90
8002;DHT22;4046;48.774;8.732;2023-07-30T13:10:14;23.30;99.90
8002;DHT22;4046;48.774;8.732;2023-07-30T13:12:40;23.10;99.90
8002;DHT22;4046;48.774;8.732;2023-07-30T13:15:07;23.30;99.90
8002;DHT22;4046;48.774;8.732;2023-07-30T13:17:33;23.30;99.90
8002;DHT22;4046;48.774;8.732;2023-07-30T13:19:59;23.30;99.90
8002;DHT22;4046;48.774;8.732;2023-07-30T13:22:25;23.30;99.90
8002;DHT22;4046;48.774;8.732;2023-07-30T13:24:51;23.30;99.90
8002;DHT22;4046;48.774;8.732;2023-07-30T13:27:17;23.30;99.90
8002;DHT22;4046;48.774;8.732;2023-07-30T13:29:44;23.30;99.90
8002;DHT22;4046;48.774;8.732;2023-07-30T13:32:09;23.50;99.90
8002;DHT22;4046;48.774;8.732;2023-07-30T13:34:35;23.30;99.90
8002;DHT22;4046;48.774;8.732;2023-07-30T13:37:01;23.30;99.90
8002;DHT22;4046;48.774;8.732;2023-07-30T13:39:27;23.30;99.90
8002;DHT22;4046;48.774;8.732;2023-07-30T13:41:53;23.30;99.90
8002;DHT22;4046;48.774;8.732;2023-07-30T13:44:20;23.30;99.90
8002;DHT22;4046;48.774;8.732;2023-07-30T13:46:45;23.40;99.90
8002;DHT22;4046;48.774;8.732;2023-07-30T13:49:11;23.30;99.90
8002;DHT22;4046;48.774;8.732;2023-07-30T13:51:37;23.30;99.90
8002;DHT22;4046;48.774;8.732;2023-07-30T13:54:02;23.30;99.90
8002;DHT22;4046;48.774;8.732;2023-07-30T13:56:29;23.30;99.90
8002;DHT22;4046;48.774;8.732;2023-07-30T13:58:55;23.30;99.90
8002;DHT22;4046;48.774;8.732;2023-07-30T14:01:21;23.30;99.90
8002;DHT22;4046;48.774;8.732;2023-07-30T14:03:47;23.30;99.90
8002;DHT22;4046;48.774;8.732;2023-07-30T14:06:13;23.30;99.90
8002;DHT22;4046;48.774;8.732;2023-07-30T14:08:38;23.30;99.90
8002;DHT22;4046;48.774;8.732;2023-07-30T14:11:04;23.30;99.90
8002;DHT22;4046;48.774;8.732;2023-07-30T14:13:30;23.30;99.90
8002;DHT22;4046;48.774;8.732;2023-07-30T14:15:56;23.20;99.90
8002;DHT22;4046;48.774;8.732;2023-07-30T14:18:24;23.30;99.90
8002;DHT22;4046;48.774;8.732;2023-07-30T14:20:50;23.30;99.90
8002;DHT22;4046;48.774;8.732;2023-07-30T14:23:15;23.30;99.90
8002;DHT22;4046;48.774;8.732;2023-07-30T14:25:41;23.30;99.90
8002;DHT22;4046;48.774;8.732;2023-07-30T14:28:07;23.30;99.90
8002;DHT22;4046;48.774;8.732;2023-07-30T14:30:33;23.30;99.90
8002;DHT22;4046;48.774;8.732;2023-07-30T14:32:59;23.20;99.90
8002;DHT22;4046;48.774;8.732;2023-07-30T14:35:25;23.20;99.90
8002;DHT22;4046;48.774;8.732;2023-07-30T14:37:51;23.20;99.90
8002;DHT22;4046;48.774;8.732;2023-07-30T14:40:17;23.20;99.90
8002;DHT22;4046;48.774;8.732;2023-07-30T14:42:43;23.20;99.90
8002;DHT22;4046;48.774;8.732;2023-07-30T14:45:09;23.20;99.90
8002;DHT22;4046;48.774;8.732;2023-07-30T14:47:35;23.20;99.90
8002;DHT22;4046;48.774;8.732;2023-07-30T14:50:01;23.20;99.90
8002;DHT22;4046;48.774;8.732;2023-07-30T14:52:27;23.20;99.90
8002;DHT22;4046;48.774;8.732;2023-07-30T14:54:53;23.20;99.90
8002;DHT22;4046;48.774;8.732;2023-07-30T14:57:19;23.20;99.90
8002;DHT22;4046;48.774;8.732;2023-07-30T14:59:45;23.20;99.90
8002;DHT22;4046;48.774;8.732;2023-07-30T15:02:11;23.20;99.90
8002;DHT22;4046;48.774;8.732;2023-07-30T15:04:38;23.40;99.90
8002;DHT22;4046;48.774;8.732;2023-07-30T15:07:04;23.20;99.90
8002;DHT22;4046;48.774;8.732;2023-07-30T15:09:30;23.20;99.90
8002;DHT22;4046;48.774;8.732;2023-07-30T15:12:00;23.20;99.90
8002;DHT22;4046;48.774;8.732;2023-07-30T15:14:27;23.20;99.90
8002;DHT22;4046;48.774;8.732;2023-07-30T15:16:53;23.20;99.90
8002;DHT22;4046;48.774;8.732;2023-07-30T15:19:19;23.20;99.90
8002;DHT22;4046;48.774;8.732;2023-07-30T15:21:45;23.30;99.90
8002;DHT22;4046;48.774;8.732;2023-07-30T15:24:10;23.20;99.90
8002;DHT22;4046;48.774;8.732;2023-07-30T15:26:36;23.30;99.90
8002;DHT22;4046;48.774;8.732;2023-07-30T15:29:02;23.20;99.90
8002;DHT22;4046;48.774;8.732;2023-07-30T15:31:28;23.20;99.90
8002;DHT22;4046;48.774;8.732;2023-07-30T15:33:55;23.20;99.90
8002;DHT22;4046;48.774;8.732;2023-07-30T15:36:22;23.20;99.90
8002;DHT22;4046;48.774;8.732;2023-07-30T15:38:48;23.20;99.90
8002;DHT22;4046;48.774;8.732;2023-07-30T15:41:20;23.20;99.90
8002;DHT22;4046;48.774;8.732;2023-07-30T15:43:46;23.20;99.90
8002;DHT22;4046;48.774;8.732;2023-07-30T15:46:13;23.20;99.90
8002;DHT22;4046;48.774;8.732;2023-07-30T15:48:40;23.20;99.90
8002;DHT22;4046;48.774;8.732;2023-07-30T15:51:07;23.20;99.90
8002;DHT22;4046;48.774;8.732;2023-07-30T15:53:33;23.20;99.90
8002;DHT22;4046;48.774;8.732;2023-07-30T15:56:02;23.20;99.90
8002;DHT22;4046;48.774;8.732;2023-07-30T15:58:32;23.20;99.90
8002;DHT22;4046;48.774;8.732;2023-07-30T16:01:06;23.20;99.90